This is the latest recevied weather packets stored in our database for station/object N1TKS. If no packets are shown the sender has not sent any weather packets the latest 10 day(s).
| Time | Temp. | Humidity | Pressure | Rain* | Wind** | Luminosity | Snow |
|---|---|---|---|---|---|---|---|
| 1778092614 | 15.56° C | 87% | 1008.2 hPa | 0.51 mm | - | - | - |
| 1778092314 | 15.56° C | 87% | 1008.3 hPa | 0.51 mm | - | - | - |
| 1778092013 | 15.56° C | 87% | 1008.3 hPa | 0.51 mm | - | - | - |
| 1778091714 | 15.56° C | 87% | 1008.3 hPa | 0.51 mm | - | - | - |
| 1778091114 | 15.56° C | 87% | 1008.5 hPa | 0.51 mm | - | - | - |
| 1778090815 | 15.56° C | 87% | 1008.6 hPa | 0.51 mm | - | - | - |
| 1778090260 | 15.56° C | 87% | 1008.6 hPa | 0.51 mm | - | - | - |
| 1778090215 | 15.56° C | 87% | 1008.6 hPa | 0.51 mm | - | - | - |
| 1778090065 | 15.56° C | 86% | 1008.6 hPa | 0.51 mm | - | - | - |
| 1778089613 | 15.56° C | 86% | 1008.5 hPa | 0.51 mm | - | - | - |
| 1778089317 | 15.56° C | 86% | 1008.4 hPa | 0.76 mm | - | - | - |
| 1778089013 | 15.56° C | 86% | 1008.4 hPa | 0.51 mm | - | - | - |
| 1778088715 | 15.56° C | 86% | 1008.4 hPa | 0.51 mm | - | - | - |
| 1778088515 | 15.56° C | 86% | 1008.6 hPa | 0.51 mm | - | - | - |
| 1778088414 | 15.56° C | 86% | 1008.6 hPa | 0.51 mm | - | - | - |
| 1778088151 | 16.67° C | 83% | 1009 hPa | 0.51 mm | - | - | - |
| 1778088144 | 16.67° C | 83% | 1009 hPa | 0.25 mm | - | - | - |
| 1778088115 | 15.56° C | 85% | 1008.6 hPa | 0.51 mm | - | - | - |
| 1778087902 | 15.56° C | 85% | 1008.9 hPa | 0.51 mm | - | - | - |
| 1778087814 | 15.56° C | 85% | 1008.9 hPa | 0.51 mm | - | - | - |
| 1778086982 | 16.11° C | 83% | 1008.9 hPa | 0.51 mm | - | - | - |
| 1778086919 | 16.11° C | 83% | 1008.9 hPa | 0.51 mm | - | - | - |
| 1778086613 | 16.67° C | 83% | 1009 hPa | 0.51 mm | - | - | - |
| 1778086314 | 16.67° C | 83% | 1009 hPa | 0.25 mm | - | - | - |
| 1778086016 | 17.22° C | 81% | 1009.2 hPa | 0.25 mm | - | - | - |
* Rain latest hour (hover to see other rain measurements)
** Current wind speed in m/s (hover to see current wind gust speed)